Time;durP1;ratioP1;P1;durP2;ratioP2;P2;SDS_P1;SDS_P2;PMS_P1;PMS_P2;Temp;Humidity;BMP_temperature;BMP_pressure;BME280_temperature;BME280_humidity;BME280_pressure;Samples;Min_cycle;Max_cycle;Signal;HPM_P1;HPM_P2
2023/07/04 05:03:29;;;;;;;2.30;1.10;;;18.80;99.90;;;;;;5094829;23;20038;-75
2023/07/04 05:06:03;;;;;;;5.00;2.13;;;19.00;99.90;;;;;;5024222;28;20034;-74
2023/07/04 05:08:29;;;;;;;5.13;2.13;;;19.00;99.90;;;;;;5024332;28;20044;-72
2023/07/04 05:11:06;;;;;;;2.55;1.30;;;19.20;99.90;;;;;;5006792;28;20037;-71
2023/07/04 05:13:36;;;;;;;2.45;1.27;;;19.40;99.90;;;;;;5023872;28;20026;-74
2023/07/04 05:16:11;;;;;;;5.10;1.42;;;19.60;99.90;;;;;;5014587;28;20025;-73
2023/07/04 05:18:38;;;;;;;3.35;1.60;;;19.70;99.90;;;;;;4994029;28;20025;-72
2023/07/04 05:21:09;;;;;;;3.38;1.52;;;19.90;99.90;;;;;;5023408;28;20026;-73
2023/07/04 05:23:37;;;;;;;2.67;1.42;;;19.90;99.40;;;;;;5024318;28;20299;-74
2023/07/04 05:26:09;;;;;;;2.40;1.15;;;20.00;99.10;;;;;;5024017;28;20044;-72
2023/07/04 05:28:35;;;;;;;4.20;1.42;;;20.10;98.50;;;;;;5007831;28;20033;-74
2023/07/04 05:31:10;;;;;;;3.80;1.40;;;20.00;98.40;;;;;;5004048;28;20034;-74
2023/07/04 05:36:02;;;;;;;4.97;1.50;;;20.00;98.20;;;;;;5012864;28;20053;-74
2023/07/04 05:38:28;;;;;;;5.20;1.50;;;20.10;97.90;;;;;;5023584;28;20029;-71
2023/07/04 05:40:53;;;;;;;5.10;1.63;;;20.10;97.30;;;;;;5006106;28;20101;-73
2023/07/04 05:43:19;;;;;;;5.40;1.70;;;20.20;96.70;;;;;;5023144;28;20042;-73
2023/07/04 05:45:49;;;;;;;4.30;1.85;;;20.20;96.50;;;;;;5005776;28;20025;-73
2023/07/04 05:48:16;;;;;;;5.05;1.50;;;20.20;95.90;;;;;;5022976;28;20030;-73
2023/07/04 05:50:51;;;;;;;5.70;1.23;;;20.20;95.80;;;;;;5023632;28;20215;-70
2023/07/04 05:53:18;;;;;;;4.25;1.60;;;20.30;96.00;;;;;;5023068;28;20064;-73
2023/07/04 05:55:43;;;;;;;5.53;1.55;;;20.20;96.10;;;;;;5006426;28;20026;-74
2023/07/04 05:58:09;;;;;;;4.80;1.63;;;20.20;96.10;;;;;;5023000;28;20176;-74
2023/07/04 06:00:35;;;;;;;4.65;1.60;;;20.20;96.50;;;;;;5023369;28;20021;-75
2023/07/04 06:03:03;;;;;;;7.13;1.85;;;20.30;95.80;;;;;;5022750;28;20046;-73
2023/07/04 06:05:29;;;;;;;;;;;20.30;96.10;;;;;;5024173;28;20044;-75
2023/07/04 06:07:56;;;;;;;5.15;1.40;;;20.40;95.60;;;;;;5023091;28;19917;-72
2023/07/04 06:10:23;;;;;;;7.75;2.08;;;20.50;94.90;;;;;;5005082;28;20354;-73
2023/07/04 06:12:50;;;;;;;9.35;2.17;;;20.80;94.80;;;;;;5023229;28;20060;-72
2023/07/04 06:15:16;;;;;;;5.57;1.40;;;20.80;94.40;;;;;;5022814;28;20029;-72
2023/07/04 06:17:42;;;;;;;4.60;1.70;;;21.00;93.80;;;;;;5023010;28;20036;-73
2023/07/04 06:20:08;;;;;;;3.92;1.70;;;21.10;93.00;;;;;;5022773;28;20033;-74
2023/07/04 06:22:34;;;;;;;9.48;1.80;;;21.20;93.10;;;;;;5022952;28;20084;-74
2023/07/04 06:24:59;;;;;;;5.32;1.75;;;21.10;92.80;;;;;;5023146;28;20053;-74
2023/07/04 06:27:27;;;;;;;3.40;1.60;;;21.10;93.10;;;;;;5022433;28;20312;-73
2023/07/04 06:29:55;;;;;;;4.17;1.57;;;21.30;92.70;;;;;;5022788;28;20026;-73
2023/07/04 06:32:21;;;;;;;7.60;1.77;;;21.40;91.80;;;;;;5022564;28;20034;-73
2023/07/04 06:34:47;;;;;;;5.85;1.65;;;21.50;91.40;;;;;;5005728;28;20056;-74
2023/07/04 06:37:15;;;;;;;4.82;1.60;;;21.60;91.50;;;;;;5022539;28;20228;-71
2023/07/04 06:39:42;;;;;;;;;;;22.00;90.30;;;;;;5005764;28;20030;-77
2023/07/04 06:42:07;;;;;;;5.47;1.50;;;22.00;89.50;;;;;;5004625;28;19905;-72
2023/07/04 06:44:45;;;;;;;3.60;1.55;;;22.00;89.30;;;;;;4989806;28;20034;-70
2023/07/04 06:47:11;;;;;;;4.45;1.80;;;22.00;89.70;;;;;;5023021;28;20049;-71
2023/07/04 06:49:37;;;;;;;6.35;1.83;;;22.00;89.50;;;;;;5026904;28;20045;-71
2023/07/04 06:52:06;;;;;;;6.20;1.88;;;22.00;88.90;;;;;;5026817;28;20036;-71
2023/07/04 06:54:37;;;;;;;4.63;1.70;;;22.20;87.40;;;;;;5026979;28;20229;-71
2023/07/04 06:57:04;;;;;;;6.38;1.90;;;22.20;86.80;;;;;;5026331;28;20038;-72
2023/07/04 06:59:30;;;;;;;3.65;1.80;;;22.10;86.80;;;;;;5026059;28;20072;-73
2023/07/04 07:01:55;;;;;;;4.85;2.00;;;22.20;86.90;;;;;;5025665;28;20045;-70
2023/07/04 07:04:21;;;;;;;9.07;1.88;;;22.40;85.50;;;;;;5008551;28;20045;-73
2023/07/04 07:06:48;;;;;;;5.20;1.80;;;22.50;81.80;;;;;;5026021;28;20207;-71
2023/07/04 07:09:14;;;;;;;6.55;1.90;;;22.50;81.60;;;;;;5026099;28;20026;-71
2023/07/04 07:11:48;;;;;;;5.50;2.00;;;22.60;82.10;;;;;;5026259;28;20121;-71
2023/07/04 07:14:14;;;;;;;6.63;2.05;;;22.80;81.10;;;;;;5011325;28;20066;-72
2023/07/04 07:16:39;;;;;;;6.22;2.17;;;22.80;80.20;;;;;;5006847;28;20173;-72
2023/07/04 07:19:06;;;;;;;6.82;2.25;;;22.80;80.60;;;;;;5006593;28;20035;-74
2023/07/04 07:21:36;;;;;;;6.25;2.35;;;22.70;80.70;;;;;;5006427;28;20044;-72
2023/07/04 07:24:02;;;;;;;7.18;2.22;;;22.70;80.40;;;;;;5006458;28;20105;-73
2023/07/04 07:26:28;;;;;;;7.47;2.25;;;22.80;80.20;;;;;;5005898;28;20042;-71
2023/07/04 07:28:54;;;;;;;8.02;2.47;;;22.70;80.00;;;;;;5019530;28;20017;-72
2023/07/04 07:31:25;;;;;;;8.43;2.55;;;22.80;79.20;;;;;;5025811;28;20032;-71
2023/07/04 07:33:51;;;;;;;7.47;2.42;;;22.90;79.30;;;;;;5025724;28;20029;-72
2023/07/04 07:36:37;;;;;;;4.15;1.90;;;23.00;79.10;;;;;;5025289;28;20250;-71
2023/07/04 07:39:05;;;;;;;6.25;2.65;;;23.20;79.70;;;;;;5008109;28;20029;-72
2023/07/04 07:41:32;;;;;;;;;;;23.00;79.50;;;;;;4981072;28;20033;-70
2023/07/04 07:43:58;;;;;;;7.55;2.45;;;23.00;79.80;;;;;;5019818;28;20127;-71
2023/07/04 07:46:25;;;;;;;6.85;1.98;;;23.40;78.70;;;;;;5008976;28;20284;-72
2023/07/04 07:48:51;;;;;;;4.75;1.63;;;23.40;78.90;;;;;;5015886;28;20034;-72
2023/07/04 07:51:18;;;;;;;4.80;1.95;;;23.60;78.50;;;;;;5025044;28;20028;-71
2023/07/04 07:53:46;;;;;;;5.55;2.30;;;23.50;78.00;;;;;;5025612;28;20056;-72
2023/07/04 07:56:15;;;;;;;7.38;2.40;;;23.50;77.30;;;;;;5024284;28;20382;-70
2023/07/04 07:58:40;;;;;;;5.97;2.10;;;23.30;78.90;;;;;;5010125;28;20034;-71
2023/07/04 08:01:13;;;;;;;5.68;2.83;;;23.50;78.40;;;;;;5024716;28;20029;-71
2023/07/04 08:03:40;;;;;;;7.70;2.80;;;23.40;77.30;;;;;;4991339;28;20096;-71
2023/07/04 08:06:07;;;;;;;6.15;2.42;;;23.30;77.20;;;;;;5025202;28;20112;-72
2023/07/04 08:08:33;;;;;;;10.13;3.20;;;23.70;75.50;;;;;;5024281;28;20076;-71
2023/07/04 08:10:59;;;;;;;7.30;2.78;;;23.70;72.70;;;;;;5004402;28;20232;-72
2023/07/04 08:13:24;;;;;;;8.10;2.88;;;23.90;72.60;;;;;;5004454;28;20033;-73
2023/07/04 08:15:55;;;;;;;7.72;2.80;;;24.10;73.50;;;;;;5005418;28;20054;-74
2023/07/04 08:18:21;;;;;;;7.38;2.70;;;24.60;73.70;;;;;;5024313;28;20029;-71
2023/07/04 08:21:01;;;;;;;8.27;2.70;;;24.80;72.80;;;;;;5007512;28;20030;-74
2023/07/04 08:23:28;;;;;;;7.47;2.97;;;24.80;73.10;;;;;;5024662;28;20083;-73
2023/07/04 08:25:54;;;;;;;10.05;3.58;;;25.00;71.20;;;;;;5024845;28;20049;-71
2023/07/04 08:28:23;;;;;;;7.38;3.03;;;24.90;70.50;;;;;;5020187;28;20100;-73
2023/07/04 08:30:50;;;;;;;7.28;3.13;;;25.00;70.80;;;;;;5005085;28;20038;-73
2023/07/04 08:33:16;;;;;;;8.65;2.95;;;25.10;69.70;;;;;;4987212;28;20049;-73
2023/07/04 08:35:57;;;;;;;6.60;2.90;;;25.00;70.00;;;;;;5009730;28;20033;-71
2023/07/04 08:38:22;;;;;;;5.47;2.90;;;25.00;69.70;;;;;;5007241;28;20075;-72
2023/07/04 08:40:49;;;;;;;8.23;3.03;;;25.30;70.40;;;;;;5024871;28;20038;-73
2023/07/04 08:43:20;;;;;;;8.55;3.33;;;25.30;70.40;;;;;;5015982;28;20100;-71
2023/07/04 08:45:47;;;;;;;10.43;2.95;;;25.00;70.50;;;;;;5004497;28;20102;-72
2023/07/04 08:48:17;;;;;;;6.72;2.50;;;24.60;71.10;;;;;;5008984;28;20046;-74
2023/07/04 08:50:46;;;;;;;9.57;2.75;;;24.10;72.70;;;;;;5007202;28;20060;-74
2023/07/04 08:53:18;;;;;;;8.18;2.95;;;23.90;73.40;;;;;;5004236;28;20093;-76
2023/07/04 08:56:25;;;;;;;6.70;2.90;;;24.00;72.80;;;;;;5004696;28;20034;-74
2023/07/04 08:59:14;;;;;;;7.00;3.53;;;24.00;72.60;;;;;;5004706;28;20034;-78
2023/07/04 09:01:51;;;;;;;7.22;3.13;;;24.20;72.30;;;;;;5004075;28;20215;-72
2023/07/04 09:04:31;;;;;;;7.00;2.80;;;23.90;72.40;;;;;;5004140;28;20316;-72
2023/07/04 09:07:09;;;;;;;16.23;3.60;;;24.10;72.40;;;;;;4987753;28;20076;-71
2023/07/04 09:09:46;;;;;;;6.90;2.90;;;24.20;72.60;;;;;;5015583;28;20331;-72
2023/07/04 09:12:12;;;;;;;5.65;3.00;;;24.30;71.90;;;;;;5002972;28;20054;-74
2023/07/04 09:14:45;;;;;;;7.53;3.30;;;24.60;72.30;;;;;;5022779;28;20033;-71
2023/07/04 09:17:33;;;;;;;8.35;2.90;;;24.80;70.70;;;;;;5023940;28;20037;-73
2023/07/04 09:20:02;;;;;;;5.75;2.85;;;25.30;70.80;;;;;;5023674;28;20034;-72
2023/07/04 09:22:27;;;;;;;;;;;25.30;70.20;;;;;;5023831;28;20034;-73
2023/07/04 09:24:53;;;;;;;7.63;3.35;;;25.10;70.70;;;;;;5020202;28;20250;-73
2023/07/04 09:27:19;;;;;;;8.90;3.53;;;25.20;70.10;;;;;;5003460;28;20252;-72
2023/07/04 09:29:46;;;;;;;9.30;3.67;;;25.40;69.80;;;;;;5003815;28;20334;-71
2023/07/04 09:32:12;;;;;;;6.55;3.47;;;25.30;69.80;;;;;;4986985;28;20041;-73
2023/07/04 09:34:49;;;;;;;6.88;3.70;;;25.10;69.80;;;;;;5006268;28;20046;-72
2023/07/04 09:37:17;;;;;;;8.23;4.27;;;25.10;70.20;;;;;;4989325;28;20069;-73
2023/07/04 09:39:55;;;;;;;6.45;3.90;;;25.20;69.10;;;;;;5017911;28;20022;-73
2023/07/04 09:42:43;;;;;;;9.25;3.38;;;25.60;69.10;;;;;;5002555;28;20341;-71
2023/07/04 09:45:12;;;;;;;8.38;3.40;;;25.80;68.80;;;;;;5002875;28;20053;-72
2023/07/04 09:47:44;;;;;;;14.13;3.92;;;26.10;67.70;;;;;;5005651;28;20312;-72
2023/07/04 09:50:13;;;;;;;6.70;4.25;;;26.10;67.70;;;;;;5014544;28;20212;-73
2023/07/04 09:52:39;;;;;;;7.50;4.30;;;26.40;65.70;;;;;;5003195;28;20045;-71
2023/07/04 09:55:16;;;;;;;8.55;4.30;;;26.20;66.10;;;;;;5003390;28;20207;-71
2023/07/04 09:57:45;;;;;;;9.23;4.10;;;26.10;65.50;;;;;;4985756;28;20030;-71
2023/07/04 10:00:19;;;;;;;9.43;3.92;;;26.40;65.00;;;;;;5003599;28;20035;-73
2023/07/04 10:02:56;;;;;;;8.68;4.20;;;26.80;63.40;;;;;;5003106;28;20054;-73
2023/07/04 10:05:31;;;;;;;11.32;3.55;;;27.00;64.50;;;;;;4985766;28;20089;-71
2023/07/04 10:08:07;;;;;;;9.85;3.45;;;27.40;65.10;;;;;;5003655;28;20033;-73
2023/07/04 10:10:49;;;;;;;8.68;3.80;;;27.20;65.40;;;;;;5007062;28;20255;-72
2023/07/04 10:13:25;;;;;;;7.22;3.53;;;27.00;65.50;;;;;;5022187;28;20395;-72
2023/07/04 10:15:51;;;;;;;8.05;3.83;;;26.90;65.70;;;;;;5023098;28;20106;-72
2023/07/04 10:18:32;;;;;;;12.85;4.38;;;26.90;65.20;;;;;;5022576;28;20046;-72
2023/07/04 10:21:00;;;;;;;7.18;3.95;;;26.90;65.90;;;;;;5022998;28;20034;-72
2023/07/04 10:23:27;;;;;;;7.95;3.20;;;27.10;65.70;;;;;;5023119;28;20022;-73
2023/07/04 10:25:55;;;;;;;6.53;3.97;;;27.50;65.00;;;;;;5008212;28;20172;-73
2023/07/04 10:28:26;;;;;;;6.70;3.30;;;27.70;64.90;;;;;;5007105;28;20069;-72
2023/07/04 10:30:56;;;;;;;7.55;3.55;;;27.70;64.90;;;;;;5007576;28;20084;-70
2023/07/04 10:33:28;;;;;;;6.18;3.33;;;27.80;63.60;;;;;;5006667;28;20105;-73
2023/07/04 10:35:54;;;;;;;16.15;4.03;;;28.00;63.40;;;;;;4994064;28;20232;-72
2023/07/04 10:38:38;;;;;;;9.00;4.00;;;27.80;63.40;;;;;;5007290;28;20041;-71
2023/07/04 10:41:23;;;;;;;9.25;3.60;;;28.00;63.50;;;;;;5016460;28;20097;-74
2023/07/04 10:43:55;;;;;;;7.57;3.97;;;27.90;62.20;;;;;;5012412;28;20034;-73
2023/07/04 10:46:25;;;;;;;7.35;4.10;;;27.60;62.50;;;;;;5006828;28;20216;-77
2023/07/04 10:48:57;;;;;;;9.38;4.80;;;27.50;63.20;;;;;;5019514;28;20045;-77
2023/07/04 10:51:33;;;;;;;7.03;3.90;;;27.40;63.70;;;;;;4992703;28;20029;-79
2023/07/04 10:54:02;;;;;;;9.63;4.32;;;27.20;63.40;;;;;;4993364;28;20254;-76
2023/07/04 10:56:32;;;;;;;10.20;4.22;;;27.20;63.20;;;;;;5006797;28;20038;-78
2023/07/04 10:59:18;;;;;;;6.25;3.63;;;27.00;62.90;;;;;;5006500;28;20019;-77
2023/07/04 11:01:49;;;;;;;6.90;4.10;;;27.00;62.70;;;;;;5006726;28;20101;-72
2023/07/04 11:04:27;;;;;;;8.02;3.75;;;27.00;62.60;;;;;;4973241;28;20034;-71
2023/07/04 11:07:01;;;;;;;6.40;3.90;;;26.70;62.80;;;;;;5008271;28;20049;-74
2023/07/04 11:09:33;;;;;;;7.88;3.80;;;26.50;63.60;;;;;;4977027;28;20316;-75
2023/07/04 11:12:05;;;;;;;6.97;3.67;;;26.30;64.40;;;;;;4995281;28;20077;-75
2023/07/04 11:14:36;;;;;;;5.72;3.55;;;26.10;63.70;;;;;;5010297;28;20101;-74
2023/07/04 11:17:06;;;;;;;7.90;4.13;;;26.40;63.60;;;;;;4996793;28;20030;-78
2023/07/04 11:19:36;;;;;;;5.95;3.88;;;26.60;63.60;;;;;;4989319;28;20054;-74
2023/07/04 11:22:04;;;;;;;7.97;3.65;;;27.00;62.20;;;;;;5006789;28;20096;-76
2023/07/04 11:24:37;;;;;;;6.55;3.80;;;27.50;62.20;;;;;;5006084;28;20316;-75
2023/07/04 11:27:10;;;;;;;10.20;3.92;;;28.10;60.50;;;;;;5006663;28;20022;-74
2023/07/04 11:29:54;;;;;;;6.95;3.90;;;28.20;60.90;;;;;;5005047;28;20069;-75
2023/07/04 11:32:34;;;;;;;8.57;4.00;;;28.60;60.50;;;;;;4988421;28;20033;-76
2023/07/04 11:35:14;;;;;;;6.65;3.60;;;28.60;59.80;;;;;;4988028;28;20247;-75
2023/07/04 11:38:02;;;;;;;11.80;4.10;;;28.10;60.30;;;;;;5025279;28;20029;-77
2023/07/04 11:40:45;;;;;;;12.68;3.58;;;27.90;60.10;;;;;;4991831;28;20026;-77
2023/07/04 11:43:42;;;;;;;7.90;3.47;;;27.60;60.80;;;;;;4988572;28;20061;-76
2023/07/04 11:46:20;;;;;;;12.80;3.60;;;27.60;61.10;;;;;;4986939;28;20183;-75
2023/07/04 11:48:49;;;;;;;7.07;3.15;;;27.80;60.80;;;;;;5005681;28;20054;-73
2023/07/04 11:51:17;;;;;;;7.35;2.83;;;28.10;59.70;;;;;;4988512;28;20018;-75
2023/07/04 11:53:52;;;;;;;5.30;2.78;;;29.00;58.30;;;;;;4996306;28;20030;-79
2023/07/04 11:56:26;;;;;;;5.88;3.65;;;29.70;57.40;;;;;;5000525;28;20057;-74
2023/07/04 11:59:11;;;;;;;6.05;3.13;;;31.40;56.40;;;;;;4991475;28;20274;-77
2023/07/04 12:02:05;;;;;;;5.63;3.47;;;31.60;54.80;;;;;;4975568;28;20021;-77
2023/07/04 12:04:54;;;;;;;7.55;3.58;;;30.60;55.40;;;;;;5024772;28;20061;-77
2023/07/04 12:07:41;;;;;;;11.32;4.75;;;29.90;56.30;;;;;;5023413;28;20240;-74
2023/07/04 12:10:17;;;;;;;9.13;4.20;;;29.10;57.50;;;;;;4987905;28;20064;-75
2023/07/04 12:12:44;;;;;;;9.18;3.85;;;28.90;58.10;;;;;;4972201;28;20093;-75
2023/07/04 12:15:14;;;;;;;7.88;3.75;;;29.10;58.30;;;;;;4972461;28;20154;-75
2023/07/04 12:17:46;;;;;;;6.18;3.53;;;29.00;57.50;;;;;;5005140;28;20050;-76
2023/07/04 12:20:18;;;;;;;7.78;3.60;;;28.80;57.40;;;;;;4972320;28;20138;-76
2023/07/04 12:23:00;;;;;;;6.88;3.42;;;28.60;57.70;;;;;;4973260;28;20037;-74
2023/07/04 12:25:35;;;;;;;7.10;3.60;;;28.80;57.60;;;;;;4987827;28;20052;-74
2023/07/04 12:28:03;;;;;;;6.13;3.50;;;29.30;56.90;;;;;;4979066;28;20097;-76
2023/07/04 12:30:29;;;;;;;;;;;30.20;56.30;;;;;;5005294;28;20324;-73
2023/07/04 12:32:55;;;;;;;5.93;3.38;;;31.50;54.30;;;;;;4971847;28;20004;-74
2023/07/04 12:35:30;;;;;;;5.28;3.05;;;31.80;53.90;;;;;;5007639;28;20048;-75
2023/07/04 12:37:58;;;;;;;7.53;3.75;;;30.90;53.70;;;;;;4991084;28;20053;-74
2023/07/04 12:40:30;;;;;;;5.47;3.55;;;30.50;54.60;;;;;;5006915;28;20069;-75
2023/07/04 12:42:58;;;;;;;7.38;4.18;;;30.30;55.00;;;;;;5017026;28;20072;-73
2023/07/04 12:45:27;;;;;;;4.50;3.38;;;29.90;55.10;;;;;;5004049;28;20053;-74
2023/07/04 12:47:59;;;;;;;5.90;3.17;;;31.10;55.10;;;;;;5005080;28;20089;-75
2023/07/04 12:50:26;;;;;;;7.35;3.83;;;33.50;53.00;;;;;;5004499;28;20034;-74
2023/07/04 12:52:53;;;;;;;6.67;3.50;;;35.80;50.00;;;;;;4987818;28;20240;-76
2023/07/04 12:55:31;;;;;;;6.20;3.78;;;37.10;48.30;;;;;;5004724;28;20449;-75
2023/07/04 12:57:57;;;;;;;;;;;37.20;47.60;;;;;;5005223;28;20330;-80
2023/07/04 13:00:55;;;;;;;5.13;3.55;;;38.30;47.60;;;;;;4987538;28;19905;-76
2023/07/04 13:03:21;;;;;;;6.47;3.90;;;38.80;46.40;;;;;;4986588;28;20049;-75
2023/07/04 13:05:50;;;;;;;6.25;3.50;;;39.30;45.10;;;;;;4987138;28;20034;-75
2023/07/04 13:08:30;;;;;;;5.50;3.40;;;39.10;45.40;;;;;;4971401;28;20026;-75
2023/07/04 13:11:05;;;;;;;6.43;3.28;;;39.90;44.50;;;;;;4983766;28;20093;-74
2023/07/04 13:13:38;;;;;;;5.32;3.13;;;40.80;44.00;;;;;;5003927;28;20243;-75
2023/07/04 13:16:12;;;;;;;5.40;2.83;;;40.30;43.50;;;;;;4971734;28;20080;-77
2023/07/04 13:18:42;;;;;;;7.35;2.90;;;38.70;43.80;;;;;;4986740;28;20026;-76
2023/07/04 13:21:28;;;;;;;5.97;3.20;;;37.20;45.40;;;;;;4970936;28;20026;-75
2023/07/04 13:24:28;;;;;;;5.25;3.05;;;37.60;45.20;;;;;;5004126;28;20065;-75
2023/07/04 13:26:54;;;;;;;5.13;3.38;;;36.80;45.40;;;;;;5004009;28;20030;-78
2023/07/04 13:29:29;;;;;;;8.82;3.60;;;37.10;45.70;;;;;;5003964;28;20022;-75
2023/07/04 13:31:55;;;;;;;4.97;3.03;;;37.90;45.20;;;;;;4970805;28;20034;-76
2023/07/04 13:34:23;;;;;;;6.72;3.30;;;39.30;43.90;;;;;;4986676;28;20077;-75
2023/07/04 13:37:10;;;;;;;4.72;3.00;;;38.70;43.30;;;;;;4998379;28;20054;-74
2023/07/04 13:39:35;;;;;;;5.57;3.00;;;39.40;44.00;;;;;;5003474;28;20022;-73
2023/07/04 13:42:02;;;;;;;4.72;2.67;;;40.50;42.60;;;;;;5004325;28;20170;-73
2023/07/04 13:44:27;;;;;;;5.00;2.90;;;40.80;41.70;;;;;;4984255;28;20046;-74
2023/07/04 13:46:53;;;;;;;4.80;2.58;;;40.40;42.30;;;;;;4984132;28;20030;-75
2023/07/04 13:49:20;;;;;;;6.75;2.83;;;40.20;42.60;;;;;;5000153;28;20034;-74
2023/07/04 13:51:46;;;;;;;4.63;2.90;;;39.90;42.40;;;;;;5003306;28;20311;-75
2023/07/04 13:54:12;;;;;;;4.90;3.03;;;37.80;43.60;;;;;;5004058;28;20073;-72
2023/07/04 13:56:38;;;;;;;5.07;2.83;;;37.30;43.90;;;;;;5001901;28;20320;-74
2023/07/04 13:59:09;;;;;;;6.28;2.90;;;36.20;45.40;;;;;;5003414;28;20224;-73
2023/07/04 14:01:35;;;;;;;5.25;2.65;;;35.90;45.70;;;;;;5001868;28;20026;-76
2023/07/04 14:04:04;;;;;;;5.35;3.05;;;35.80;45.40;;;;;;5003598;28;20193;-74
2023/07/04 14:06:30;;;;;;;6.00;3.30;;;35.10;46.10;;;;;;5002896;28;20049;-77
2023/07/04 14:08:57;;;;;;;5.53;3.10;;;35.60;45.80;;;;;;5003366;28;20029;-77
2023/07/04 14:11:23;;;;;;;5.50;3.10;;;35.20;46.00;;;;;;4983209;28;20073;-75
2023/07/04 14:13:51;;;;;;;7.72;3.08;;;34.60;46.60;;;;;;4983676;28;20022;-73
2023/07/04 14:16:20;;;;;;;5.50;2.58;;;34.30;47.10;;;;;;4983862;28;20062;-73
2023/07/04 14:18:46;;;;;;;4.78;2.55;;;33.40;47.20;;;;;;4983356;28;20023;-73
2023/07/04 14:21:13;;;;;;;6.78;2.55;;;33.20;48.60;;;;;;4983505;28;20051;-73
2023/07/04 14:23:39;;;;;;;5.03;2.65;;;33.90;47.30;;;;;;4983443;28;20080;-73
2023/07/04 14:26:15;;;;;;;5.72;2.78;;;34.10;47.50;;;;;;4984006;28;20046;-73
2023/07/04 14:28:42;;;;;;;5.00;2.63;;;34.20;46.90;;;;;;4983183;28;20039;-75
2023/07/04 14:31:07;;;;;;;5.68;3.00;;;34.00;46.70;;;;;;4983774;28;20035;-74
2023/07/04 14:33:33;;;;;;;5.15;3.00;;;35.50;46.70;;;;;;4983478;28;20019;-74
2023/07/04 14:36:01;;;;;;;5.57;3.28;;;38.10;45.30;;;;;;4991861;28;20030;-74
2023/07/04 14:38:27;;;;;;;3.42;2.17;;;40.80;43.30;;;;;;5002913;28;20034;-73
2023/07/04 14:40:53;;;;;;;4.57;2.47;;;42.30;41.80;;;;;;5003114;28;20023;-75
2023/07/04 14:43:18;;;;;;;8.57;4.82;;;42.80;41.10;;;;;;4992733;28;20034;-74
2023/07/04 14:45:54;;;;;;;3.72;1.92;;;42.80;41.00;;;;;;4982106;28;20035;-75
2023/07/04 14:48:20;;;;;;;4.03;1.90;;;42.90;40.70;;;;;;4982402;28;20093;-75
2023/07/04 14:50:45;;;;;;;3.35;1.85;;;43.40;40.40;;;;;;4983158;28;20351;-75
2023/07/04 14:53:11;;;;;;;3.70;2.20;;;43.70;40.10;;;;;;4983220;28;20321;-74
2023/07/04 14:55:37;;;;;;;4.65;1.80;;;44.10;39.80;;;;;;4982928;28;20045;-75
2023/07/04 14:58:04;;;;;;;4.95;2.08;;;44.70;39.20;;;;;;4983627;28;20018;-74
2023/07/04 15:00:39;;;;;;;3.42;1.98;;;44.90;39.00;;;;;;4982187;28;20023;-76
2023/07/04 15:03:04;;;;;;;2.63;1.50;;;44.70;39.60;;;;;;4983243;28;20332;-75
2023/07/04 15:05:30;;;;;;;2.50;1.40;;;44.90;38.70;;;;;;4982074;28;20073;-73
2023/07/04 15:07:56;;;;;;;3.17;1.67;;;43.70;39.10;;;;;;4982557;28;20110;-74
2023/07/04 15:10:24;;;;;;;3.28;1.73;;;42.80;39.90;;;;;;4986845;28;20070;-75
2023/07/04 15:12:53;;;;;;;2.65;1.60;;;42.20;40.20;;;;;;4987098;28;20031;-74
2023/07/04 15:15:18;;;;;;;2.67;1.83;;;42.30;40.70;;;;;;4987038;28;20038;-74
2023/07/04 15:17:44;;;;;;;2.65;1.50;;;42.10;40.80;;;;;;4986582;28;20033;-73
2023/07/04 15:20:18;;;;;;;4.03;2.10;;;42.30;40.40;;;;;;4987283;28;20216;-73
2023/07/04 15:22:44;;;;;;;3.22;1.60;;;41.50;40.50;;;;;;4985867;28;20050;-74
2023/07/04 15:25:11;;;;;;;4.88;1.85;;;41.80;40.90;;;;;;4987377;28;20038;-73
2023/07/04 15:27:37;;;;;;;3.47;1.60;;;42.10;40.60;;;;;;4986672;28;20317;-76
2023/07/04 15:30:04;;;;;;;4.38;2.10;;;42.40;40.80;;;;;;4986745;28;20077;-73
2023/07/04 15:32:30;;;;;;;3.83;2.45;;;41.70;40.80;;;;;;4986459;28;20026;-73
2023/07/04 15:34:56;;;;;;;6.30;2.45;;;41.70;40.70;;;;;;4987389;28;20049;-75
2023/07/04 15:37:23;;;;;;;3.05;1.90;;;42.60;40.10;;;;;;4986859;28;20035;-75
2023/07/04 15:39:58;;;;;;;2.80;1.77;;;42.40;40.00;;;;;;4990818;28;20084;-76
2023/07/04 15:42:24;;;;;;;2.88;1.70;;;42.10;40.00;;;;;;5002558;28;20030;-74
2023/07/04 15:44:49;;;;;;;3.08;1.70;;;41.40;39.80;;;;;;4986262;28;20030;-77
2023/07/04 15:47:17;;;;;;;3.20;1.90;;;40.60;40.60;;;;;;4995211;28;20114;-75
2023/07/04 15:49:43;;;;;;;3.97;1.98;;;41.20;40.90;;;;;;5006062;28;20038;-74
2023/07/04 15:52:08;;;;;;;4.57;1.85;;;41.10;40.40;;;;;;5006082;28;20052;-74
2023/07/04 15:54:34;;;;;;;3.55;1.80;;;42.50;40.30;;;;;;5005293;28;20383;-74
2023/07/04 15:57:00;;;;;;;2.83;1.60;;;42.70;39.60;;;;;;4987491;28;20042;-74
2023/07/04 15:59:26;;;;;;;4.95;1.70;;;41.90;39.80;;;;;;4986529;28;20042;-74
2023/07/04 16:01:51;;;;;;;6.03;2.03;;;42.20;39.60;;;;;;4985653;28;20047;-75
2023/07/04 16:04:17;;;;;;;3.28;1.67;;;42.40;40.10;;;;;;4987739;28;20035;-74
2023/07/04 16:06:44;;;;;;;3.05;1.67;;;42.70;39.30;;;;;;4989363;28;20058;-74
2023/07/04 16:09:10;;;;;;;3.08;1.95;;;42.10;40.40;;;;;;4989254;28;20058;-73
2023/07/04 16:11:38;;;;;;;3.45;2.08;;;42.20;40.00;;;;;;5005531;28;20026;-74
2023/07/04 16:14:05;;;;;;;4.20;2.00;;;41.80;40.00;;;;;;5005761;28;20029;-73
2023/07/04 16:16:31;;;;;;;4.00;1.90;;;40.70;40.90;;;;;;4988198;28;20216;-73
2023/07/04 16:18:56;;;;;;;4.88;2.40;;;39.30;41.20;;;;;;5005337;28;20061;-72
2023/07/04 16:21:22;;;;;;;5.43;1.90;;;38.10;42.20;;;;;;5004935;28;20038;-78
2023/07/04 16:23:49;;;;;;;3.83;2.10;;;37.40;42.90;;;;;;5003965;28;20045;-76
2023/07/04 16:26:16;;;;;;;5.28;2.55;;;36.90;43.90;;;;;;4999616;28;20220;-74
2023/07/04 16:28:42;;;;;;;3.75;2.05;;;36.90;44.00;;;;;;4985252;28;20269;-73
2023/07/04 16:31:08;;;;;;;8.57;2.63;;;38.00;43.10;;;;;;5002054;28;20031;-72
2023/07/04 16:33:35;;;;;;;4.47;2.10;;;38.70;42.70;;;;;;5002889;28;20240;-74
2023/07/04 16:36:03;;;;;;;3.55;2.08;;;38.10;42.70;;;;;;4984468;28;20043;-71
2023/07/04 16:38:29;;;;;;;4.15;2.08;;;38.30;42.70;;;;;;4985447;28;20030;-76
2023/07/04 16:40:55;;;;;;;4.25;2.17;;;38.60;42.60;;;;;;4985434;28;20034;-73
2023/07/04 16:43:22;;;;;;;4.43;2.28;;;38.80;43.10;;;;;;4997321;28;20044;-74
2023/07/04 16:45:47;;;;;;;4.80;2.40;;;38.00;43.00;;;;;;5004232;28;20260;-70
2023/07/04 16:48:13;;;;;;;4.78;2.47;;;37.10;43.30;;;;;;5005099;28;20026;-74
2023/07/04 16:50:40;;;;;;;5.28;2.75;;;36.00;44.30;;;;;;5004736;28;20058;-73
2023/07/04 16:53:07;;;;;;;5.32;2.53;;;35.00;45.30;;;;;;5005046;28;20034;-74
2023/07/04 16:55:35;;;;;;;4.85;2.72;;;33.80;46.50;;;;;;5004432;28;20097;-72
2023/07/04 16:58:04;;;;;;;3.88;2.45;;;33.10;47.60;;;;;;5004742;28;20030;-72
2023/07/04 17:00:30;;;;;;;5.25;2.88;;;32.20;48.40;;;;;;4992333;28;20046;-71
2023/07/04 17:02:56;;;;;;;5.63;2.45;;;31.60;49.20;;;;;;4984607;28;20114;-74
2023/07/04 17:05:22;;;;;;;5.03;2.70;;;31.20;49.90;;;;;;4985061;28;20037;-73
2023/07/04 17:07:48;;;;;;;5.82;2.50;;;30.90;50.40;;;;;;4984858;28;20062;-72
2023/07/04 17:10:13;;;;;;;5.88;3.28;;;30.40;50.80;;;;;;4984769;28;20046;-72
2023/07/04 17:12:39;;;;;;;4.70;2.53;;;30.00;51.60;;;;;;4984425;28;20058;-74
2023/07/04 17:15:06;;;;;;;4.93;2.90;;;29.50;52.00;;;;;;4985175;28;20088;-73
2023/07/04 17:17:37;;;;;;;7.47;2.97;;;29.20;52.40;;;;;;4984916;28;20030;-74
2023/07/04 17:20:03;;;;;;;4.25;2.67;;;29.00;52.70;;;;;;4987785;28;20331;-76
2023/07/04 17:22:29;;;;;;;4.78;2.67;;;28.70;53.40;;;;;;5002767;28;20030;-74
2023/07/04 17:24:54;;;;;;;5.75;2.70;;;28.50;53.70;;;;;;4999179;28;20037;-75
2023/07/04 17:27:20;;;;;;;6.18;3.00;;;28.50;54.00;;;;;;4984740;28;20209;-72
2023/07/04 17:29:46;;;;;;;5.55;2.70;;;28.40;54.00;;;;;;4984047;28;20034;-76
2023/07/04 17:32:12;;;;;;;5.55;2.80;;;28.40;53.90;;;;;;4983678;28;20026;-73
2023/07/04 17:34:38;;;;;;;7.90;3.10;;;28.20;54.00;;;;;;4996477;28;20030;-73
2023/07/04 17:37:05;;;;;;;5.65;2.90;;;28.00;54.60;;;;;;4999577;28;20241;-73
2023/07/04 17:39:32;;;;;;;5.95;2.60;;;27.90;54.80;;;;;;4984328;28;20092;-72
2023/07/04 17:41:58;;;;;;;7.70;3.35;;;27.90;55.00;;;;;;5000816;28;20045;-72
2023/07/04 17:44:25;;;;;;;8.15;3.70;;;27.80;54.90;;;;;;5003632;28;20022;-75
2023/07/04 17:46:50;;;;;;;5.75;2.70;;;27.90;55.10;;;;;;5003438;28;20034;-71
2023/07/04 17:49:16;;;;;;;5.70;2.72;;;27.80;55.00;;;;;;5003937;28;20331;-73
2023/07/04 17:51:42;;;;;;;6.38;3.13;;;27.70;54.90;;;;;;5003327;28;20037;-73
2023/07/04 17:54:08;;;;;;;5.57;2.85;;;27.80;55.10;;;;;;5004155;28;20347;-72
2023/07/04 17:56:34;;;;;;;6.60;2.70;;;27.70;55.30;;;;;;5004187;28;20031;-72
2023/07/04 17:59:00;;;;;;;11.23;3.25;;;27.70;55.40;;;;;;5002966;28;20031;-74
2023/07/04 18:01:26;;;;;;;6.65;2.72;;;27.60;55.60;;;;;;5002961;28;20316;-73
2023/07/04 18:03:53;;;;;;;4.97;2.80;;;27.60;56.00;;;;;;5003154;28;20045;-73
2023/07/04 18:06:20;;;;;;;6.85;3.08;;;27.50;56.00;;;;;;5001263;28;20054;-73